sensor_id;sensor_type;location;lat;lon;timestamp;temperature;humidity
20672;DHT22;10495;50.922;4.760;2023-07-29T00:00:53;22.00;91.30
20672;DHT22;10495;50.922;4.760;2023-07-29T00:03:18;22.00;91.30
20672;DHT22;10495;50.922;4.760;2023-07-29T00:05:44;21.90;91.20
20672;DHT22;10495;50.922;4.760;2023-07-29T00:08:10;21.90;91.20
20672;DHT22;10495;50.922;4.760;2023-07-29T00:10:36;21.90;91.10
20672;DHT22;10495;50.922;4.760;2023-07-29T00:13:03;21.90;91.10
20672;DHT22;10495;50.922;4.760;2023-07-29T00:15:29;21.90;91.10
20672;DHT22;10495;50.922;4.760;2023-07-29T00:17:55;21.90;91.10
20672;DHT22;10495;50.922;4.760;2023-07-29T00:20:20;21.80;91.10
20672;DHT22;10495;50.922;4.760;2023-07-29T00:22:46;21.80;91.10
20672;DHT22;10495;50.922;4.760;2023-07-29T00:25:11;21.80;91.10
20672;DHT22;10495;50.922;4.760;2023-07-29T00:27:37;21.80;91.10
20672;DHT22;10495;50.922;4.760;2023-07-29T00:30:03;21.70;91.10
20672;DHT22;10495;50.922;4.760;2023-07-29T00:32:29;21.70;91.10
20672;DHT22;10495;50.922;4.760;2023-07-29T00:34:56;21.70;91.10
20672;DHT22;10495;50.922;4.760;2023-07-29T00:37:21;21.60;91.10
20672;DHT22;10495;50.922;4.760;2023-07-29T00:39:47;21.70;91.00
20672;DHT22;10495;50.922;4.760;2023-07-29T00:42:13;21.70;91.10
20672;DHT22;10495;50.922;4.760;2023-07-29T00:44:38;21.80;90.60
20672;DHT22;10495;50.922;4.760;2023-07-29T00:47:05;21.70;90.50
20672;DHT22;10495;50.922;4.760;2023-07-29T00:49:31;21.70;90.30
20672;DHT22;10495;50.922;4.760;2023-07-29T00:51:57;21.60;90.30
20672;DHT22;10495;50.922;4.760;2023-07-29T00:54:23;21.60;90.30
20672;DHT22;10495;50.922;4.760;2023-07-29T00:56:49;21.60;90.20
20672;DHT22;10495;50.922;4.760;2023-07-29T00:59:15;21.40;90.40
20672;DHT22;10495;50.922;4.760;2023-07-29T01:01:41;21.30;90.50
20672;DHT22;10495;50.922;4.760;2023-07-29T01:04:07;21.30;90.50
20672;DHT22;10495;50.922;4.760;2023-07-29T01:12:20;21.00;90.30
20672;DHT22;10495;50.922;4.760;2023-07-29T01:14:59;20.90;90.60
20672;DHT22;10495;50.922;4.760;2023-07-29T01:17:32;20.90;90.30
20672;DHT22;10495;50.922;4.760;2023-07-29T01:20:07;20.80;90.20
20672;DHT22;10495;50.922;4.760;2023-07-29T01:22:34;20.70;90.30
20672;DHT22;10495;50.922;4.760;2023-07-29T01:25:00;20.60;90.30
20672;DHT22;10495;50.922;4.760;2023-07-29T01:27:26;20.60;90.20
20672;DHT22;10495;50.922;4.760;2023-07-29T01:29:53;20.60;90.10
20672;DHT22;10495;50.922;4.760;2023-07-29T01:37:37;20.40;90.10
20672;DHT22;10495;50.922;4.760;2023-07-29T01:40:05;20.40;90.00
20672;DHT22;10495;50.922;4.760;2023-07-29T01:42:32;20.50;90.10
20672;DHT22;10495;50.922;4.760;2023-07-29T01:44:58;20.40;90.00
20672;DHT22;10495;50.922;4.760;2023-07-29T01:47:23;20.40;90.00
20672;DHT22;10495;50.922;4.760;2023-07-29T01:49:49;20.40;90.00
20672;DHT22;10495;50.922;4.760;2023-07-29T01:52:14;20.30;89.90
20672;DHT22;10495;50.922;4.760;2023-07-29T01:54:40;20.30;89.80
20672;DHT22;10495;50.922;4.760;2023-07-29T01:57:06;20.20;89.70
20672;DHT22;10495;50.922;4.760;2023-07-29T01:59:31;20.20;89.60
20672;DHT22;10495;50.922;4.760;2023-07-29T02:01:57;20.20;89.50
20672;DHT22;10495;50.922;4.760;2023-07-29T02:04:23;20.20;89.70
20672;DHT22;10495;50.922;4.760;2023-07-29T02:06:48;20.20;89.80
20672;DHT22;10495;50.922;4.760;2023-07-29T02:09:14;20.10;89.70
20672;DHT22;10495;50.922;4.760;2023-07-29T02:11:39;20.20;89.70
20672;DHT22;10495;50.922;4.760;2023-07-29T02:14:05;20.10;89.70
20672;DHT22;10495;50.922;4.760;2023-07-29T02:16:30;20.10;89.70
20672;DHT22;10495;50.922;4.760;2023-07-29T02:18:58;20.10;90.10
20672;DHT22;10495;50.922;4.760;2023-07-29T02:21:23;20.10;89.70
20672;DHT22;10495;50.922;4.760;2023-07-29T02:23:49;20.10;89.50
20672;DHT22;10495;50.922;4.760;2023-07-29T02:26:16;20.10;89.60
20672;DHT22;10495;50.922;4.760;2023-07-29T02:28:42;20.10;89.50
20672;DHT22;10495;50.922;4.760;2023-07-29T02:31:20;20.00;89.60
20672;DHT22;10495;50.922;4.760;2023-07-29T02:33:46;19.90;89.80
20672;DHT22;10495;50.922;4.760;2023-07-29T02:36:13;19.90;89.90
20672;DHT22;10495;50.922;4.760;2023-07-29T02:38:39;19.90;89.80
20672;DHT22;10495;50.922;4.760;2023-07-29T02:41:05;19.90;89.70
20672;DHT22;10495;50.922;4.760;2023-07-29T02:43:30;19.90;89.80
20672;DHT22;10495;50.922;4.760;2023-07-29T02:45:56;19.80;89.60
20672;DHT22;10495;50.922;4.760;2023-07-29T02:48:22;19.80;89.70
20672;DHT22;10495;50.922;4.760;2023-07-29T02:50:47;19.80;89.80
20672;DHT22;10495;50.922;4.760;2023-07-29T02:53:13;19.80;89.90
20672;DHT22;10495;50.922;4.760;2023-07-29T02:55:41;19.80;89.80
20672;DHT22;10495;50.922;4.760;2023-07-29T02:58:07;19.80;89.80
20672;DHT22;10495;50.922;4.760;2023-07-29T03:00:33;19.80;89.80
20672;DHT22;10495;50.922;4.760;2023-07-29T03:02:59;19.70;89.80
20672;DHT22;10495;50.922;4.760;2023-07-29T03:05:27;19.80;89.70
20672;DHT22;10495;50.922;4.760;2023-07-29T03:07:53;19.80;90.00
20672;DHT22;10495;50.922;4.760;2023-07-29T03:10:18;19.70;90.00
20672;DHT22;10495;50.922;4.760;2023-07-29T03:12:44;19.70;90.00
20672;DHT22;10495;50.922;4.760;2023-07-29T03:15:10;19.80;90.00
20672;DHT22;10495;50.922;4.760;2023-07-29T03:17:35;19.80;89.80
20672;DHT22;10495;50.922;4.760;2023-07-29T03:20:01;19.80;90.00
20672;DHT22;10495;50.922;4.760;2023-07-29T03:22:26;19.70;90.10
20672;DHT22;10495;50.922;4.760;2023-07-29T03:24:52;19.60;90.20
20672;DHT22;10495;50.922;4.760;2023-07-29T03:27:18;19.60;90.20
20672;DHT22;10495;50.922;4.760;2023-07-29T03:29:43;19.60;90.20
20672;DHT22;10495;50.922;4.760;2023-07-29T03:32:09;19.60;90.20
20672;DHT22;10495;50.922;4.760;2023-07-29T03:34:35;19.60;90.20
20672;DHT22;10495;50.922;4.760;2023-07-29T03:37:01;19.50;90.10
20672;DHT22;10495;50.922;4.760;2023-07-29T03:39:26;19.50;90.50
20672;DHT22;10495;50.922;4.760;2023-07-29T03:41:52;19.50;90.30
20672;DHT22;10495;50.922;4.760;2023-07-29T03:44:18;19.50;90.30
20672;DHT22;10495;50.922;4.760;2023-07-29T03:46:44;19.40;90.40
20672;DHT22;10495;50.922;4.760;2023-07-29T03:49:10;19.40;90.40
20672;DHT22;10495;50.922;4.760;2023-07-29T03:51:36;19.40;90.40
20672;DHT22;10495;50.922;4.760;2023-07-29T03:54:01;19.50;90.40
20672;DHT22;10495;50.922;4.760;2023-07-29T03:56:27;19.60;90.40
20672;DHT22;10495;50.922;4.760;2023-07-29T03:58:52;19.60;90.30
20672;DHT22;10495;50.922;4.760;2023-07-29T04:01:18;19.60;90.30
20672;DHT22;10495;50.922;4.760;2023-07-29T04:03:45;19.50;90.40
20672;DHT22;10495;50.922;4.760;2023-07-29T04:06:12;19.40;90.50
20672;DHT22;10495;50.922;4.760;2023-07-29T04:08:37;19.60;90.50
20672;DHT22;10495;50.922;4.760;2023-07-29T04:11:03;19.50;90.40
20672;DHT22;10495;50.922;4.760;2023-07-29T04:13:28;19.50;90.40
20672;DHT22;10495;50.922;4.760;2023-07-29T04:15:54;19.40;90.60
20672;DHT22;10495;50.922;4.760;2023-07-29T04:18:20;19.50;90.50
20672;DHT22;10495;50.922;4.760;2023-07-29T04:20:45;19.50;90.40
20672;DHT22;10495;50.922;4.760;2023-07-29T04:23:11;19.50;90.40
20672;DHT22;10495;50.922;4.760;2023-07-29T04:25:36;19.50;90.30
20672;DHT22;10495;50.922;4.760;2023-07-29T04:28:02;19.40;90.40
20672;DHT22;10495;50.922;4.760;2023-07-29T04:30:28;19.50;90.40
20672;DHT22;10495;50.922;4.760;2023-07-29T04:32:54;19.40;90.40
20672;DHT22;10495;50.922;4.760;2023-07-29T04:35:20;19.40;90.30
20672;DHT22;10495;50.922;4.760;2023-07-29T04:37:45;19.30;90.30
20672;DHT22;10495;50.922;4.760;2023-07-29T04:40:13;19.50;90.30
20672;DHT22;10495;50.922;4.760;2023-07-29T04:42:39;19.60;90.10
20672;DHT22;10495;50.922;4.760;2023-07-29T04:45:05;19.50;90.10
20672;DHT22;10495;50.922;4.760;2023-07-29T04:47:31;19.40;90.30
20672;DHT22;10495;50.922;4.760;2023-07-29T04:49:56;19.50;90.10
20672;DHT22;10495;50.922;4.760;2023-07-29T04:52:22;19.40;90.30
20672;DHT22;10495;50.922;4.760;2023-07-29T04:54:47;19.50;90.30
20672;DHT22;10495;50.922;4.760;2023-07-29T04:57:13;19.50;90.50
20672;DHT22;10495;50.922;4.760;2023-07-29T04:59:39;19.50;90.50
20672;DHT22;10495;50.922;4.760;2023-07-29T05:02:04;19.60;90.40
20672;DHT22;10495;50.922;4.760;2023-07-29T05:04:30;19.50;90.30
20672;DHT22;10495;50.922;4.760;2023-07-29T05:06:56;19.60;90.20
20672;DHT22;10495;50.922;4.760;2023-07-29T05:09:21;19.70;90.10
20672;DHT22;10495;50.922;4.760;2023-07-29T05:11:47;19.60;90.10
20672;DHT22;10495;50.922;4.760;2023-07-29T05:14:15;19.50;90.20
20672;DHT22;10495;50.922;4.760;2023-07-29T05:16:41;19.70;90.00
20672;DHT22;10495;50.922;4.760;2023-07-29T05:19:07;19.60;90.00
20672;DHT22;10495;50.922;4.760;2023-07-29T05:21:33;19.60;90.00
20672;DHT22;10495;50.922;4.760;2023-07-29T05:23:58;19.60;90.00
20672;DHT22;10495;50.922;4.760;2023-07-29T05:26:24;19.70;90.10
20672;DHT22;10495;50.922;4.760;2023-07-29T05:28:49;19.80;90.10
20672;DHT22;10495;50.922;4.760;2023-07-29T05:31:15;19.70;90.00
20672;DHT22;10495;50.922;4.760;2023-07-29T05:33:41;19.70;90.00
20672;DHT22;10495;50.922;4.760;2023-07-29T05:36:06;19.90;90.10
20672;DHT22;10495;50.922;4.760;2023-07-29T05:38:32;20.20;90.20
20672;DHT22;10495;50.922;4.760;2023-07-29T05:40:57;20.50;90.00
20672;DHT22;10495;50.922;4.760;2023-07-29T05:43:27;20.80;88.90
20672;DHT22;10495;50.922;4.760;2023-07-29T05:45:52;20.80;88.20
20672;DHT22;10495;50.922;4.760;2023-07-29T05:48:19;20.80;87.50
20672;DHT22;10495;50.922;4.760;2023-07-29T05:50:45;20.80;87.40
20672;DHT22;10495;50.922;4.760;2023-07-29T05:53:11;20.80;86.90
20672;DHT22;10495;50.922;4.760;2023-07-29T05:55:36;20.70;87.20
20672;DHT22;10495;50.922;4.760;2023-07-29T05:58:02;20.70;87.50
20672;DHT22;10495;50.922;4.760;2023-07-29T06:00:27;20.80;87.60
20672;DHT22;10495;50.922;4.760;2023-07-29T06:02:53;21.00;88.60
20672;DHT22;10495;50.922;4.760;2023-07-29T06:05:19;21.40;88.20
20672;DHT22;10495;50.922;4.760;2023-07-29T06:07:44;21.80;86.20
20672;DHT22;10495;50.922;4.760;2023-07-29T06:10:14;22.00;84.80
20672;DHT22;10495;50.922;4.760;2023-07-29T06:12:44;22.00;84.00
20672;DHT22;10495;50.922;4.760;2023-07-29T06:15:09;21.90;83.50
20672;DHT22;10495;50.922;4.760;2023-07-29T06:17:35;22.00;83.20
20672;DHT22;10495;50.922;4.760;2023-07-29T06:20:01;21.90;82.90
20672;DHT22;10495;50.922;4.760;2023-07-29T06:22:26;22.10;82.50
20672;DHT22;10495;50.922;4.760;2023-07-29T06:24:52;22.00;82.30
20672;DHT22;10495;50.922;4.760;2023-07-29T06:27:17;21.90;82.10
20672;DHT22;10495;50.922;4.760;2023-07-29T06:29:43;21.90;81.50
20672;DHT22;10495;50.922;4.760;2023-07-29T06:32:09;21.70;82.00
20672;DHT22;10495;50.922;4.760;2023-07-29T06:34:34;21.60;82.80
20672;DHT22;10495;50.922;4.760;2023-07-29T06:37:00;21.60;83.20
20672;DHT22;10495;50.922;4.760;2023-07-29T06:39:25;21.60;83.50
20672;DHT22;10495;50.922;4.760;2023-07-29T06:41:51;21.80;83.70
20672;DHT22;10495;50.922;4.760;2023-07-29T06:44:16;21.90;82.60
20672;DHT22;10495;50.922;4.760;2023-07-29T06:46:42;22.00;82.50
20672;DHT22;10495;50.922;4.760;2023-07-29T06:49:08;22.10;82.30
20672;DHT22;10495;50.922;4.760;2023-07-29T06:51:33;22.40;81.20
20672;DHT22;10495;50.922;4.760;2023-07-29T06:54:01;22.40;81.10
20672;DHT22;10495;50.922;4.760;2023-07-29T06:56:27;22.40;81.70
20672;DHT22;10495;50.922;4.760;2023-07-29T06:58:52;22.50;81.00
20672;DHT22;10495;50.922;4.760;2023-07-29T07:01:18;22.60;81.20
20672;DHT22;10495;50.922;4.760;2023-07-29T07:03:44;22.80;80.50
20672;DHT22;10495;50.922;4.760;2023-07-29T07:06:09;23.00;80.80
20672;DHT22;10495;50.922;4.760;2023-07-29T07:08:35;23.20;79.40
20672;DHT22;10495;50.922;4.760;2023-07-29T07:11:01;23.30;80.20
20672;DHT22;10495;50.922;4.760;2023-07-29T07:13:26;23.40;79.70
20672;DHT22;10495;50.922;4.760;2023-07-29T07:15:55;23.60;79.00
20672;DHT22;10495;50.922;4.760;2023-07-29T07:18:20;23.70;79.40
20672;DHT22;10495;50.922;4.760;2023-07-29T07:20:49;23.90;79.40
20672;DHT22;10495;50.922;4.760;2023-07-29T07:23:15;23.90;79.10
20672;DHT22;10495;50.922;4.760;2023-07-29T07:25:41;24.00;78.10
20672;DHT22;10495;50.922;4.760;2023-07-29T07:28:08;24.00;77.90
20672;DHT22;10495;50.922;4.760;2023-07-29T07:30:34;24.00;76.90
20672;DHT22;10495;50.922;4.760;2023-07-29T07:33:00;24.10;76.20
20672;DHT22;10495;50.922;4.760;2023-07-29T07:35:26;24.10;75.20
20672;DHT22;10495;50.922;4.760;2023-07-29T07:37:51;23.90;75.40
20672;DHT22;10495;50.922;4.760;2023-07-29T07:40:17;23.80;75.40
20672;DHT22;10495;50.922;4.760;2023-07-29T07:42:42;23.70;75.60
20672;DHT22;10495;50.922;4.760;2023-07-29T07:45:08;23.60;75.40
20672;DHT22;10495;50.922;4.760;2023-07-29T07:47:33;23.60;75.70
20672;DHT22;10495;50.922;4.760;2023-07-29T07:49:59;23.70;75.90
20672;DHT22;10495;50.922;4.760;2023-07-29T07:52:25;23.70;75.00
20672;DHT22;10495;50.922;4.760;2023-07-29T07:54:54;23.60;75.60
20672;DHT22;10495;50.922;4.760;2023-07-29T07:57:23;23.50;75.30
20672;DHT22;10495;50.922;4.760;2023-07-29T07:59:48;23.50;75.90
20672;DHT22;10495;50.922;4.760;2023-07-29T08:02:14;23.50;76.00
20672;DHT22;10495;50.922;4.760;2023-07-29T08:04:39;23.50;76.30
20672;DHT22;10495;50.922;4.760;2023-07-29T08:07:05;23.40;76.90
20672;DHT22;10495;50.922;4.760;2023-07-29T08:09:31;23.40;76.60
20672;DHT22;10495;50.922;4.760;2023-07-29T08:11:56;23.50;77.70
20672;DHT22;10495;50.922;4.760;2023-07-29T08:14:22;23.80;77.30
20672;DHT22;10495;50.922;4.760;2023-07-29T08:16:48;24.00;76.30
20672;DHT22;10495;50.922;4.760;2023-07-29T08:19:13;24.10;76.30
20672;DHT22;10495;50.922;4.760;2023-07-29T08:21:39;24.20;75.60
20672;DHT22;10495;50.922;4.760;2023-07-29T08:24:05;24.50;75.60
20672;DHT22;10495;50.922;4.760;2023-07-29T08:26:32;24.50;72.80
20672;DHT22;10495;50.922;4.760;2023-07-29T08:28:57;24.70;72.90
20672;DHT22;10495;50.922;4.760;2023-07-29T08:31:23;24.70;73.00
20672;DHT22;10495;50.922;4.760;2023-07-29T08:33:48;24.70;72.80
20672;DHT22;10495;50.922;4.760;2023-07-29T08:36:14;24.70;72.30
20672;DHT22;10495;50.922;4.760;2023-07-29T08:38:40;24.80;72.50
20672;DHT22;10495;50.922;4.760;2023-07-29T08:41:16;25.00;72.70
20672;DHT22;10495;50.922;4.760;2023-07-29T08:43:50;25.30;73.30
20672;DHT22;10495;50.922;4.760;2023-07-29T08:46:19;25.40;72.00
20672;DHT22;10495;50.922;4.760;2023-07-29T08:48:45;25.40;72.50
20672;DHT22;10495;50.922;4.760;2023-07-29T08:51:12;25.60;70.50
20672;DHT22;10495;50.922;4.760;2023-07-29T08:53:38;25.90;70.90
20672;DHT22;10495;50.922;4.760;2023-07-29T08:56:07;26.00;69.50
20672;DHT22;10495;50.922;4.760;2023-07-29T08:58:33;26.30;69.40
20672;DHT22;10495;50.922;4.760;2023-07-29T09:01:00;26.30;68.60
20672;DHT22;10495;50.922;4.760;2023-07-29T09:03:26;26.80;68.30
20672;DHT22;10495;50.922;4.760;2023-07-29T09:05:53;27.30;68.30
20672;DHT22;10495;50.922;4.760;2023-07-29T09:08:20;27.60;67.10
20672;DHT22;10495;50.922;4.760;2023-07-29T09:10:46;28.00;66.00
20672;DHT22;10495;50.922;4.760;2023-07-29T09:13:12;28.20;63.90
20672;DHT22;10495;50.922;4.760;2023-07-29T09:15:38;28.40;65.80
20672;DHT22;10495;50.922;4.760;2023-07-29T09:18:12;28.50;66.70
20672;DHT22;10495;50.922;4.760;2023-07-29T09:20:39;28.80;66.30
20672;DHT22;10495;50.922;4.760;2023-07-29T09:23:08;29.00;65.60
20672;DHT22;10495;50.922;4.760;2023-07-29T09:25:36;29.40;64.50
20672;DHT22;10495;50.922;4.760;2023-07-29T09:28:10;29.80;63.20
20672;DHT22;10495;50.922;4.760;2023-07-29T09:30:38;30.10;63.40
20672;DHT22;10495;50.922;4.760;2023-07-29T09:33:04;30.30;59.80
20672;DHT22;10495;50.922;4.760;2023-07-29T09:35:32;30.40;60.20
20672;DHT22;10495;50.922;4.760;2023-07-29T09:37:58;30.30;60.90
20672;DHT22;10495;50.922;4.760;2023-07-29T09:40:23;30.00;59.60
20672;DHT22;10495;50.922;4.760;2023-07-29T09:42:50;30.00;60.30
20672;DHT22;10495;50.922;4.760;2023-07-29T09:45:24;29.80;59.70
20672;DHT22;10495;50.922;4.760;2023-07-29T09:47:50;29.60;59.80
20672;DHT22;10495;50.922;4.760;2023-07-29T09:50:16;29.20;60.10
20672;DHT22;10495;50.922;4.760;2023-07-29T09:52:42;28.90;61.10
20672;DHT22;10495;50.922;4.760;2023-07-29T09:55:12;28.90;62.00
20672;DHT22;10495;50.922;4.760;2023-07-29T09:57:40;28.80;62.10
20672;DHT22;10495;50.922;4.760;2023-07-29T10:00:06;29.20;63.30
20672;DHT22;10495;50.922;4.760;2023-07-29T10:02:40;29.20;60.40
20672;DHT22;10495;50.922;4.760;2023-07-29T10:05:07;29.00;60.70
20672;DHT22;10495;50.922;4.760;2023-07-29T10:07:34;29.20;60.00
20672;DHT22;10495;50.922;4.760;2023-07-29T10:10:02;28.90;60.00
20672;DHT22;10495;50.922;4.760;2023-07-29T10:12:30;28.40;60.50
20672;DHT22;10495;50.922;4.760;2023-07-29T10:14:59;28.30;61.30
20672;DHT22;10495;50.922;4.760;2023-07-29T10:17:26;28.00;61.40
20672;DHT22;10495;50.922;4.760;2023-07-29T10:19:52;27.80;61.10
20672;DHT22;10495;50.922;4.760;2023-07-29T10:22:20;27.90;62.40
20672;DHT22;10495;50.922;4.760;2023-07-29T10:24:48;28.30;63.70
20672;DHT22;10495;50.922;4.760;2023-07-29T10:27:18;28.70;63.20
20672;DHT22;10495;50.922;4.760;2023-07-29T10:29:45;28.70;60.20
20672;DHT22;10495;50.922;4.760;2023-07-29T10:32:11;28.40;60.60
20672;DHT22;10495;50.922;4.760;2023-07-29T10:34:37;28.30;60.40
20672;DHT22;10495;50.922;4.760;2023-07-29T10:37:04;28.30;59.60
20672;DHT22;10495;50.922;4.760;2023-07-29T10:39:40;28.00;61.70
20672;DHT22;10495;50.922;4.760;2023-07-29T10:42:06;27.90;59.90
20672;DHT22;10495;50.922;4.760;2023-07-29T10:49:43;27.10;61.70
20672;DHT22;10495;50.922;4.760;2023-07-29T10:52:16;27.10;62.40
20672;DHT22;10495;50.922;4.760;2023-07-29T10:54:46;26.70;63.30
20672;DHT22;10495;50.922;4.760;2023-07-29T10:57:30;26.60;64.00
20672;DHT22;10495;50.922;4.760;2023-07-29T10:59:56;26.20;65.80
20672;DHT22;10495;50.922;4.760;2023-07-29T11:02:32;25.90;67.50
20672;DHT22;10495;50.922;4.760;2023-07-29T11:04:58;25.70;69.50
20672;DHT22;10495;50.922;4.760;2023-07-29T11:07:26;25.40;72.50
20672;DHT22;10495;50.922;4.760;2023-07-29T11:09:57;25.20;74.40
20672;DHT22;10495;50.922;4.760;2023-07-29T11:12:45;25.20;74.60
20672;DHT22;10495;50.922;4.760;2023-07-29T11:15:15;25.10;75.50
20672;DHT22;10495;50.922;4.760;2023-07-29T11:17:58;25.00;77.70
20672;DHT22;10495;50.922;4.760;2023-07-29T11:20:26;25.00;77.10
20672;DHT22;10495;50.922;4.760;2023-07-29T11:22:56;25.00;78.60
20672;DHT22;10495;50.922;4.760;2023-07-29T11:25:23;25.00;79.40
20672;DHT22;10495;50.922;4.760;2023-07-29T11:27:52;25.00;81.20
20672;DHT22;10495;50.922;4.760;2023-07-29T11:30:18;25.40;79.60
20672;DHT22;10495;50.922;4.760;2023-07-29T11:32:45;25.40;79.00
20672;DHT22;10495;50.922;4.760;2023-07-29T11:35:13;25.70;79.20
20672;DHT22;10495;50.922;4.760;2023-07-29T11:37:41;25.80;79.60
20672;DHT22;10495;50.922;4.760;2023-07-29T11:40:08;26.00;79.80
20672;DHT22;10495;50.922;4.760;2023-07-29T11:42:36;26.10;80.40
20672;DHT22;10495;50.922;4.760;2023-07-29T11:45:05;26.30;81.90
20672;DHT22;10495;50.922;4.760;2023-07-29T11:47:35;26.30;81.70
20672;DHT22;10495;50.922;4.760;2023-07-29T11:50:06;26.60;80.90
20672;DHT22;10495;50.922;4.760;2023-07-29T11:52:35;26.80;79.20
20672;DHT22;10495;50.922;4.760;2023-07-29T11:55:03;26.70;79.40
20672;DHT22;10495;50.922;4.760;2023-07-29T11:57:30;26.80;77.60
20672;DHT22;10495;50.922;4.760;2023-07-29T11:59:56;26.90;76.50
20672;DHT22;10495;50.922;4.760;2023-07-29T12:02:23;26.90;76.20
20672;DHT22;10495;50.922;4.760;2023-07-29T12:04:49;27.30;74.20
20672;DHT22;10495;50.922;4.760;2023-07-29T12:07:17;27.10;73.70
20672;DHT22;10495;50.922;4.760;2023-07-29T12:09:44;27.20;73.20
20672;DHT22;10495;50.922;4.760;2023-07-29T12:12:10;27.30;72.70
20672;DHT22;10495;50.922;4.760;2023-07-29T12:14:35;27.10;71.20
20672;DHT22;10495;50.922;4.760;2023-07-29T12:17:06;27.20;71.20
20672;DHT22;10495;50.922;4.760;2023-07-29T12:19:33;27.30;70.50
20672;DHT22;10495;50.922;4.760;2023-07-29T12:22:00;27.50;69.10
20672;DHT22;10495;50.922;4.760;2023-07-29T12:24:26;27.50;70.00
20672;DHT22;10495;50.922;4.760;2023-07-29T12:26:52;27.50;72.10
20672;DHT22;10495;50.922;4.760;2023-07-29T12:29:19;27.60;72.20
20672;DHT22;10495;50.922;4.760;2023-07-29T12:31:48;27.70;68.60
20672;DHT22;10495;50.922;4.760;2023-07-29T12:34:21;27.70;67.10
20672;DHT22;10495;50.922;4.760;2023-07-29T12:36:51;27.40;67.10
20672;DHT22;10495;50.922;4.760;2023-07-29T12:41:43;26.80;70.10
20672;DHT22;10495;50.922;4.760;2023-07-29T12:44:09;26.60;72.10
20672;DHT22;10495;50.922;4.760;2023-07-29T12:46:34;26.50;74.30
20672;DHT22;10495;50.922;4.760;2023-07-29T12:49:00;26.50;74.80
20672;DHT22;10495;50.922;4.760;2023-07-29T12:51:26;26.10;73.20
20672;DHT22;10495;50.922;4.760;2023-07-29T12:53:52;25.50;76.20
20672;DHT22;10495;50.922;4.760;2023-07-29T12:56:17;24.70;79.70
20672;DHT22;10495;50.922;4.760;2023-07-29T12:58:43;24.50;80.80
20672;DHT22;10495;50.922;4.760;2023-07-29T13:01:08;24.40;81.70
20672;DHT22;10495;50.922;4.760;2023-07-29T13:03:34;24.40;81.60
20672;DHT22;10495;50.922;4.760;2023-07-29T13:06:00;24.20;82.50
20672;DHT22;10495;50.922;4.760;2023-07-29T13:08:25;24.10;83.30
20672;DHT22;10495;50.922;4.760;2023-07-29T13:10:51;24.10;84.80
20672;DHT22;10495;50.922;4.760;2023-07-29T13:13:16;24.20;86.10
20672;DHT22;10495;50.922;4.760;2023-07-29T13:15:42;24.50;87.30
20672;DHT22;10495;50.922;4.760;2023-07-29T13:18:08;24.70;85.80
20672;DHT22;10495;50.922;4.760;2023-07-29T13:20:33;24.70;85.20
20672;DHT22;10495;50.922;4.760;2023-07-29T13:23:00;24.80;84.60
20672;DHT22;10495;50.922;4.760;2023-07-29T13:25:25;24.80;84.30
20672;DHT22;10495;50.922;4.760;2023-07-29T13:27:51;24.80;85.20
20672;DHT22;10495;50.922;4.760;2023-07-29T13:30:16;25.10;86.20
20672;DHT22;10495;50.922;4.760;2023-07-29T13:32:42;25.10;85.20
20672;DHT22;10495;50.922;4.760;2023-07-29T13:35:08;25.40;85.70
20672;DHT22;10495;50.922;4.760;2023-07-29T13:37:33;25.70;85.10
20672;DHT22;10495;50.922;4.760;2023-07-29T13:39:59;25.80;83.90
20672;DHT22;10495;50.922;4.760;2023-07-29T13:42:24;25.80;82.20
20672;DHT22;10495;50.922;4.760;2023-07-29T13:44:50;25.50;82.00
20672;DHT22;10495;50.922;4.760;2023-07-29T13:47:15;25.40;83.80
20672;DHT22;10495;50.922;4.760;2023-07-29T13:49:41;25.60;83.30
20672;DHT22;10495;50.922;4.760;2023-07-29T13:52:07;25.60;82.80
20672;DHT22;10495;50.922;4.760;2023-07-29T13:54:32;25.70;81.60
20672;DHT22;10495;50.922;4.760;2023-07-29T13:56:58;25.70;81.90
20672;DHT22;10495;50.922;4.760;2023-07-29T13:59:23;25.90;78.50
20672;DHT22;10495;50.922;4.760;2023-07-29T14:01:49;26.00;78.70
20672;DHT22;10495;50.922;4.760;2023-07-29T14:04:15;26.10;76.60
20672;DHT22;10495;50.922;4.760;2023-07-29T14:06:40;25.90;78.60
20672;DHT22;10495;50.922;4.760;2023-07-29T14:09:06;25.90;80.20
20672;DHT22;10495;50.922;4.760;2023-07-29T14:11:32;26.10;78.10
20672;DHT22;10495;50.922;4.760;2023-07-29T14:13:57;26.20;79.20
20672;DHT22;10495;50.922;4.760;2023-07-29T14:16:23;26.20;78.00
20672;DHT22;10495;50.922;4.760;2023-07-29T14:18:49;26.30;77.50
20672;DHT22;10495;50.922;4.760;2023-07-29T14:21:15;26.40;75.10
20672;DHT22;10495;50.922;4.760;2023-07-29T14:23:41;26.50;75.60
20672;DHT22;10495;50.922;4.760;2023-07-29T14:26:07;26.50;77.20
20672;DHT22;10495;50.922;4.760;2023-07-29T14:28:35;26.50;75.70
20672;DHT22;10495;50.922;4.760;2023-07-29T14:31:01;26.40;74.80
20672;DHT22;10495;50.922;4.760;2023-07-29T14:33:27;26.30;75.70
20672;DHT22;10495;50.922;4.760;2023-07-29T14:35:53;26.50;75.60
20672;DHT22;10495;50.922;4.760;2023-07-29T14:38:20;26.70;76.00
20672;DHT22;10495;50.922;4.760;2023-07-29T14:40:48;26.70;77.10
20672;DHT22;10495;50.922;4.760;2023-07-29T14:43:13;26.70;77.90
20672;DHT22;10495;50.922;4.760;2023-07-29T14:45:39;26.60;77.50
20672;DHT22;10495;50.922;4.760;2023-07-29T14:48:04;26.80;76.30
20672;DHT22;10495;50.922;4.760;2023-07-29T14:50:30;27.10;74.40
20672;DHT22;10495;50.922;4.760;2023-07-29T14:52:56;27.10;73.40
20672;DHT22;10495;50.922;4.760;2023-07-29T14:55:21;26.90;72.60
20672;DHT22;10495;50.922;4.760;2023-07-29T14:57:47;27.00;72.90
20672;DHT22;10495;50.922;4.760;2023-07-29T15:00:13;27.10;72.50
20672;DHT22;10495;50.922;4.760;2023-07-29T15:02:40;27.20;73.30
20672;DHT22;10495;50.922;4.760;2023-07-29T15:05:06;27.20;69.30
20672;DHT22;10495;50.922;4.760;2023-07-29T15:07:32;27.10;68.80
20672;DHT22;10495;50.922;4.760;2023-07-29T15:09:57;27.10;70.20
20672;DHT22;10495;50.922;4.760;2023-07-29T15:12:23;27.10;69.80
20672;DHT22;10495;50.922;4.760;2023-07-29T15:14:50;27.10;69.80
20672;DHT22;10495;50.922;4.760;2023-07-29T15:17:15;27.10;70.60
20672;DHT22;10495;50.922;4.760;2023-07-29T15:19:41;27.10;70.80
20672;DHT22;10495;50.922;4.760;2023-07-29T15:22:07;27.10;70.00
20672;DHT22;10495;50.922;4.760;2023-07-29T15:24:33;27.10;69.40
20672;DHT22;10495;50.922;4.760;2023-07-29T15:26:58;26.90;69.90
20672;DHT22;10495;50.922;4.760;2023-07-29T15:29:24;27.20;68.80
20672;DHT22;10495;50.922;4.760;2023-07-29T15:31:50;27.10;66.60
20672;DHT22;10495;50.922;4.760;2023-07-29T15:34:15;27.00;66.70
20672;DHT22;10495;50.922;4.760;2023-07-29T15:36:41;26.90;67.40
20672;DHT22;10495;50.922;4.760;2023-07-29T15:39:07;26.80;68.00
20672;DHT22;10495;50.922;4.760;2023-07-29T15:41:33;26.90;67.90
20672;DHT22;10495;50.922;4.760;2023-07-29T15:43:59;26.80;68.90